createdAt,value
2019-03-20T00:00:34.247Z,10.03
2019-03-20T00:05:36.019Z,6.43
2019-03-20T00:10:37.772Z,12.50
2019-03-20T00:15:39.506Z,4.80
2019-03-20T00:20:41.169Z,9.53
2019-03-20T00:25:42.872Z,10.77
2019-03-20T00:30:44.575Z,5.13
2019-03-20T00:35:46.283Z,7.57
2019-03-20T00:40:47.989Z,4.83
2019-03-20T00:45:49.706Z,10.93
2019-03-20T00:50:51.483Z,5.17
2019-03-20T00:55:53.091Z,6.30
2019-03-20T01:00:54.658Z,4.73
2019-03-20T01:05:56.237Z,5.80
2019-03-20T01:10:57.858Z,5.70
2019-03-20T01:15:59.601Z,6.50
2019-03-20T01:21:01.268Z,3.70
2019-03-20T01:26:03.097Z,2.97
2019-03-20T01:31:04.874Z,7.23
2019-03-20T01:36:06.597Z,3.30
2019-03-20T01:41:08.333Z,4.53
2019-03-20T01:46:09.995Z,4.13
2019-03-20T01:51:18.969Z,6.97
2019-03-20T01:56:20.549Z,4.67
2019-03-20T02:01:22.438Z,5.27
2019-03-20T02:06:24.074Z,5.60
2019-03-20T02:11:25.924Z,5.73
2019-03-20T02:16:27.562Z,4.53
2019-03-20T02:21:29.173Z,4.87
2019-03-20T02:26:30.875Z,7.33
2019-03-20T02:31:32.619Z,3.00
2019-03-20T02:36:34.338Z,3.23
2019-03-20T02:41:35.932Z,6.37
2019-03-20T02:46:37.535Z,4.07
2019-03-20T02:51:39.119Z,7.40
2019-03-20T02:56:40.822Z,6.37
2019-03-20T03:01:42.542Z,4.30
2019-03-20T03:06:44.126Z,4.13
2019-03-20T03:11:45.874Z,5.87
2019-03-20T03:16:47.601Z,6.13
2019-03-20T03:21:49.241Z,5.17
2019-03-20T03:26:50.866Z,4.80
2019-03-20T03:31:52.497Z,4.83
2019-03-20T03:36:54.167Z,3.03
2019-03-20T03:41:55.729Z,3.43
2019-03-20T03:46:57.380Z,6.00
2019-03-20T03:51:59.127Z,4.50
2019-03-20T03:57:00.945Z,3.90
2019-03-20T04:02:02.643Z,6.40
2019-03-20T04:07:04.425Z,6.50
2019-03-20T04:12:06.137Z,3.50
2019-03-20T04:17:24.794Z,7.57
2019-03-20T04:22:26.357Z,6.60
2019-03-20T04:27:28.039Z,7.33
2019-03-20T04:32:29.802Z,6.07
2019-03-20T04:37:31.377Z,4.20
2019-03-20T04:42:32.995Z,8.23
2019-03-20T04:47:34.784Z,6.13
2019-03-20T04:52:36.621Z,4.87
2019-03-20T04:57:38.513Z,2.83
2019-03-20T05:02:40.292Z,4.63
2019-03-20T05:07:41.982Z,7.57
2019-03-20T05:12:43.690Z,5.10
2019-03-20T05:17:45.293Z,5.60
2019-03-20T05:22:47.189Z,6.33
2019-03-20T05:27:48.908Z,5.53
2019-03-20T05:32:50.495Z,7.43
2019-03-20T05:37:52.146Z,4.50
2019-03-20T05:42:53.739Z,4.57
2019-03-20T05:47:55.308Z,5.30
2019-03-20T05:52:56.911Z,3.70
2019-03-20T05:57:58.473Z,8.13
2019-03-20T06:03:00.041Z,5.70
2019-03-20T06:08:01.634Z,3.30
2019-03-20T06:13:03.310Z,5.47
2019-03-20T06:18:04.884Z,8.03
2019-03-20T06:23:06.573Z,6.00
2019-03-20T06:28:08.550Z,6.60
2019-03-20T06:33:10.247Z,3.67
2019-03-20T06:38:11.839Z,7.63
2019-03-20T06:43:13.445Z,5.00
2019-03-20T06:48:15.014Z,9.03
2019-03-20T06:53:16.749Z,7.47
2019-03-20T06:58:18.461Z,5.03
2019-03-20T07:03:45.463Z,8.63
2019-03-20T07:08:54.727Z,4.83
2019-03-20T07:13:56.293Z,7.20
2019-03-20T07:18:57.901Z,4.67
2019-03-20T07:23:59.645Z,4.00
2019-03-20T07:29:01.372Z,4.10
2019-03-20T07:34:03.137Z,5.37
2019-03-20T07:39:07.297Z,7.63
2019-03-20T07:44:08.918Z,7.13
2019-03-20T07:49:10.528Z,4.70
2019-03-20T07:54:12.127Z,4.97
2019-03-20T07:59:13.923Z,8.03
2019-03-20T08:04:15.816Z,10.10
2019-03-20T08:09:17.918Z,5.90
2019-03-20T08:14:20.025Z,6.87
2019-03-20T08:19:21.896Z,5.53
2019-03-20T08:24:23.485Z,6.53
2019-03-20T08:29:25.025Z,5.60
2019-03-20T08:34:26.565Z,9.07
2019-03-20T08:39:28.166Z,2.33
2019-03-20T08:44:29.703Z,5.77
2019-03-20T08:49:31.296Z,11.30
2019-03-20T08:54:32.857Z,5.83
2019-03-20T08:59:34.455Z,4.53
2019-03-20T09:04:36.057Z,3.97
2019-03-20T09:09:38.574Z,5.93
2019-03-20T09:14:40.319Z,5.90
2019-03-20T09:19:41.968Z,7.20
2019-03-20T09:24:43.548Z,9.00
2019-03-20T09:29:45.097Z,6.73
2019-03-20T09:34:46.642Z,9.13
2019-03-20T09:39:48.196Z,4.67
2019-03-20T09:44:49.769Z,6.97
2019-03-20T09:49:51.384Z,8.80
2019-03-20T09:55:07.061Z,5.87
2019-03-20T10:00:14.935Z,4.17
2019-03-20T10:05:16.571Z,8.03
2019-03-20T10:10:19.394Z,7.80
2019-03-20T10:15:21.042Z,5.13
2019-03-20T10:20:22.695Z,13.20
2019-03-20T10:25:24.249Z,6.67
2019-03-20T10:30:25.847Z,5.47
2019-03-20T10:35:27.406Z,6.13
2019-03-20T10:40:29.226Z,6.87
2019-03-20T10:45:30.970Z,4.67
2019-03-20T10:50:32.689Z,6.73
2019-03-20T10:55:34.452Z,5.13
2019-03-20T11:00:36.143Z,3.77
2019-03-20T11:05:37.783Z,4.43
2019-03-20T11:10:39.448Z,5.53
2019-03-20T11:15:41.133Z,4.27
2019-03-20T11:20:42.703Z,6.43
2019-03-20T11:25:44.503Z,7.77
2019-03-20T11:30:46.067Z,4.10
2019-03-20T11:35:47.597Z,8.23
2019-03-20T11:40:49.225Z,8.57
2019-03-20T11:45:50.833Z,7.50
2019-03-20T11:50:52.479Z,5.60
2019-03-20T11:55:54.263Z,5.28
2019-03-20T12:00:55.811Z,5.58
2019-03-20T12:05:57.381Z,5.80
2019-03-20T12:10:58.924Z,4.50
2019-03-20T12:16:00.689Z,3.87
2019-03-20T12:21:02.725Z,5.22
2019-03-20T12:26:04.597Z,5.05
2019-03-20T12:31:06.826Z,4.85
2019-03-20T12:36:08.658Z,6.28
2019-03-20T12:41:10.302Z,3.62
2019-03-20T12:46:11.943Z,6.50
2019-03-20T12:51:13.507Z,5.53
2019-03-20T12:56:15.040Z,3.70
2019-03-20T13:01:16.925Z,7.15
2019-03-20T13:06:19.901Z,6.97
2019-03-20T13:11:21.453Z,5.33
2019-03-20T13:16:23.027Z,6.35
2019-03-20T13:21:25.884Z,4.08
2019-03-20T13:26:27.843Z,3.75
2019-03-20T13:31:29.389Z,5.65
2019-03-20T13:36:30.956Z,5.72
2019-03-20T13:41:32.528Z,5.15
2019-03-20T13:46:34.076Z,3.87
2019-03-20T13:51:35.668Z,3.50
2019-03-20T13:56:37.286Z,3.77
2019-03-20T14:01:38.855Z,4.03
2019-03-20T14:06:40.512Z,3.95
2019-03-20T14:11:42.114Z,6.30
2019-03-20T14:16:43.786Z,6.75
2019-03-20T14:21:45.349Z,4.10
2019-03-20T14:26:46.947Z,6.67
2019-03-20T14:31:48.656Z,7.97
2019-03-20T14:36:50.273Z,8.33
2019-03-20T14:41:52.112Z,5.72
2019-03-20T14:46:53.793Z,5.83
2019-03-20T14:51:55.420Z,5.50
2019-03-20T14:56:57.027Z,10.15
2019-03-20T15:01:58.752Z,8.20
2019-03-20T15:07:00.330Z,6.35
2019-03-20T15:12:02.011Z,9.33
2019-03-20T15:17:03.660Z,5.30
2019-03-20T15:22:05.232Z,7.62
2019-03-20T15:27:06.824Z,7.65
2019-03-20T15:32:08.556Z,5.65
2019-03-20T15:37:10.126Z,9.30
2019-03-20T15:42:11.750Z,7.35
2019-03-20T15:47:13.441Z,9.45
2019-03-20T15:52:15.027Z,10.10
2019-03-20T15:57:16.656Z,10.85
2019-03-20T16:02:18.281Z,11.22
2019-03-20T16:07:19.996Z,11.38
2019-03-20T16:12:21.607Z,13.03
2019-03-20T16:17:23.504Z,9.90
2019-03-20T16:22:25.130Z,10.35
2019-03-20T16:27:26.842Z,10.50
2019-03-20T16:32:28.430Z,11.80
2019-03-20T16:37:30.142Z,11.37
2019-03-20T16:42:31.832Z,13.03
2019-03-20T16:47:33.400Z,12.60
2019-03-20T16:52:34.993Z,14.17
2019-03-20T16:57:36.683Z,13.80
2019-03-20T17:02:38.252Z,13.63
2019-03-20T17:07:39.817Z,12.63
2019-03-20T17:12:41.392Z,13.97
2019-03-20T17:17:43.003Z,14.77
2019-03-20T17:22:44.749Z,16.97
2019-03-20T17:27:46.420Z,17.67
2019-03-20T17:32:48.097Z,15.93
2019-03-20T17:37:49.845Z,15.40
2019-03-20T17:42:51.663Z,14.80
2019-03-20T17:47:53.762Z,12.77
2019-03-20T17:52:55.700Z,17.13
2019-03-20T17:57:57.417Z,16.27
2019-03-20T18:03:00.036Z,41.40
2019-03-20T18:08:01.960Z,14.13
2019-03-20T18:13:03.970Z,11.07
2019-03-20T18:18:06.284Z,13.17
2019-03-20T18:23:07.818Z,14.67
2019-03-20T18:28:09.402Z,13.83
2019-03-20T18:33:10.970Z,15.07
2019-03-20T18:38:12.727Z,13.60
2019-03-20T18:43:14.343Z,17.43
2019-03-20T18:48:16.021Z,10.97
2019-03-20T18:53:17.719Z,11.10
2019-03-20T18:58:19.368Z,14.97
2019-03-20T19:03:21.047Z,12.97
2019-03-20T19:08:22.770Z,19.43
2019-03-20T19:13:24.678Z,11.00
2019-03-20T19:18:26.357Z,9.67
2019-03-20T19:23:28.013Z,26.80
2019-03-20T19:28:29.693Z,19.37
2019-03-20T19:33:31.341Z,14.73
2019-03-20T19:38:35.213Z,9.23
2019-03-20T19:43:36.660Z,13.43
2019-03-20T19:48:38.553Z,11.70
2019-03-20T19:53:40.145Z,11.10
2019-03-20T19:58:41.771Z,12.30
2019-03-20T20:03:43.344Z,13.13
2019-03-20T20:08:45.736Z,16.67
2019-03-20T20:13:47.334Z,19.80
2019-03-20T20:18:49.078Z,20.17
2019-03-20T20:23:50.962Z,19.10
2019-03-20T20:28:52.565Z,37.20
2019-03-20T20:33:54.302Z,19.93
2019-03-20T20:38:55.890Z,20.60
2019-03-20T20:43:57.479Z,17.83
2019-03-20T20:49:01.981Z,24.23
2019-03-20T20:54:03.752Z,17.97
2019-03-20T20:59:05.451Z,19.73
2019-03-20T21:04:07.132Z,16.03
2019-03-20T21:09:08.702Z,17.20
2019-03-20T21:14:10.294Z,19.60
2019-03-20T21:19:34.230Z,22.70
2019-03-20T21:24:36.423Z,19.37
2019-03-20T21:30:05.221Z,17.27
2019-03-20T21:35:50.686Z,22.07
2019-03-20T21:41:14.092Z,18.30
2019-03-20T21:47:16.258Z,17.80
2019-03-20T21:52:18.409Z,16.23
2019-03-20T21:57:34.543Z,17.53
2019-03-20T22:02:43.130Z,18.73
2019-03-20T22:07:45.436Z,17.10
2019-03-20T22:13:24.026Z,20.13
2019-03-20T22:18:59.314Z,17.40
2019-03-20T22:24:40.855Z,16.50
2019-03-20T22:29:43.251Z,19.40
2019-03-20T22:35:19.185Z,15.50
2019-03-20T22:41:04.679Z,16.27
2019-03-20T22:46:54.591Z,16.13
2019-03-20T22:52:28.977Z,16.73
2019-03-20T22:57:53.253Z,14.67
2019-03-20T23:03:01.192Z,16.83
2019-03-20T23:08:11.748Z,15.07
2019-03-20T23:13:18.933Z,16.70
2019-03-20T23:18:18.133Z,15.50
2019-03-20T23:23:20.299Z,17.00
2019-03-20T23:28:22.945Z,15.73
2019-03-20T23:33:25.116Z,15.63
2019-03-20T23:38:28.680Z,16.57
2019-03-20T23:43:31.088Z,14.83
2019-03-20T23:48:37.374Z,14.20
2019-03-20T23:53:43.907Z,15.00
2019-03-20T23:58:46.163Z,13.93
